createdAt,value
2022-09-01T00:01:45.163Z,6.19
2022-09-01T00:16:36.697Z,7.64
2022-09-01T00:31:28.678Z,7.82
2022-09-01T00:46:22.661Z,7.02
2022-09-01T01:01:17.007Z,6.06
2022-09-01T01:16:08.153Z,5.64
2022-09-01T01:30:59.494Z,6.67
2022-09-01T01:45:50.245Z,6.56
2022-09-01T02:00:41.363Z,6.86
2022-09-01T02:15:33.825Z,7.22
2022-09-01T02:30:26.088Z,6.23
2022-09-01T02:45:16.625Z,6.91
2022-09-01T03:00:07.565Z,6.72
2022-09-01T03:44:42.800Z,7.38
2022-09-01T03:59:33.183Z,7.78
2022-09-01T04:14:23.840Z,8.21
2022-09-01T04:29:14.464Z,8.39
2022-09-01T04:44:05.950Z,9.29
2022-09-01T04:58:57.334Z,9.33
2022-09-01T05:13:48.725Z,9.53
2022-09-01T05:28:40.027Z,10.27
2022-09-01T05:43:31.769Z,11.74
2022-09-01T05:58:23.687Z,12.31
2022-09-01T06:13:15.921Z,12.58
2022-09-01T06:28:08.675Z,12.87
2022-09-01T06:43:00.654Z,11.61
2022-09-01T06:58:08.267Z,12.10
2022-09-01T07:13:05.603Z,11.41
2022-09-01T07:57:21.507Z,10.40
2022-09-01T08:12:14.513Z,9.63
2022-09-01T08:27:06.924Z,8.52
2022-09-01T08:42:04.651Z,7.99
2022-09-01T08:57:15.687Z,6.60
2022-09-01T09:12:49.841Z,5.79
2022-09-01T09:27:49.422Z,4.81
2022-09-01T09:42:53.945Z,5.49
2022-09-01T09:57:48.904Z,5.93
2022-09-01T10:12:41.740Z,5.59
2022-09-01T10:27:34.514Z,5.07
2022-09-01T10:42:29.061Z,4.32
2022-09-01T10:57:43.009Z,4.41
2022-09-01T11:12:43.617Z,4.47
2022-09-01T11:27:50.280Z,4.53
2022-09-01T11:42:46.945Z,4.74
2022-09-01T11:57:38.578Z,4.86
2022-09-01T12:12:35.703Z,4.82
2022-09-01T12:27:31.214Z,4.34
2022-09-01T12:42:24.499Z,4.04
2022-09-01T12:57:32.141Z,3.90
2022-09-01T13:12:28.673Z,3.56
2022-09-01T13:27:21.532Z,3.47
2022-09-01T13:42:13.094Z,3.26
2022-09-01T13:57:05.922Z,3.14
2022-09-01T16:59:55.587Z,4.65
2022-09-01T17:14:52.742Z,3.71
2022-09-01T17:29:47.785Z,4.87
2022-09-01T17:44:42.149Z,5.14
2022-09-01T19:01:10.523Z,4.79
2022-09-01T19:16:06.599Z,3.47
2022-09-01T19:31:01.265Z,3.60
2022-09-01T19:46:13.615Z,3.56
2022-09-01T20:01:10.404Z,3.64
2022-09-01T20:16:14.655Z,4.10
2022-09-01T20:31:16.585Z,4.18
2022-09-01T20:46:10.787Z,4.28
2022-09-01T21:01:17.958Z,4.22
2022-09-01T21:16:37.620Z,4.30
2022-09-01T21:31:35.027Z,4.37
2022-09-01T21:46:26.756Z,4.24
2022-09-01T22:01:18.232Z,4.39
2022-09-01T22:16:08.924Z,4.24
2022-09-01T22:31:00.475Z,4.41
2022-09-01T22:45:52.004Z,4.23
2022-09-01T23:00:45.297Z,4.30
2022-09-01T23:15:40.247Z,3.92
2022-09-01T23:30:33.271Z,4.14
2022-09-01T23:45:25.150Z,4.27
